Time;durP1;ratioP1;P1;durP2;ratioP2;P2;SDS_P1;SDS_P2;PMS_P1;PMS_P2;Temp;Humidity;BMP_temperature;BMP_pressure;BME280_temperature;BME280_humidity;BME280_pressure;Samples;Min_cycle;Max_cycle;Signal;HPM_P1;HPM_P2
2023/02/18 00:01:54;;;;;;;10.02;4.47;;;11.50;91.60;;;;;;5026845;28;20021;-67
2023/02/18 00:04:20;;;;;;;10.40;5.05;;;11.50;91.50;;;;;;5027881;28;20091;-67
2023/02/18 00:06:45;;;;;;;7.97;3.83;;;11.50;91.50;;;;;;5027610;28;20037;-67
2023/02/18 00:09:11;;;;;;;10.85;4.07;;;11.50;91.60;;;;;;5025069;28;20034;-67
2023/02/18 00:11:37;;;;;;;8.93;4.07;;;11.50;91.60;;;;;;5025667;28;20022;-67
2023/02/18 00:14:06;;;;;;;7.53;3.33;;;11.50;91.60;;;;;;5022406;28;20500;-67
2023/02/18 00:16:31;;;;;;;13.73;5.30;;;11.40;91.60;;;;;;5023517;28;20032;-68
2023/02/18 00:19:03;;;;;;;9.38;3.72;;;11.40;91.60;;;;;;5026462;28;20029;-67
2023/02/18 00:21:29;;;;;;;9.38;4.47;;;11.40;91.70;;;;;;5025517;28;20040;-66
2023/02/18 00:23:55;;;;;;;8.90;4.07;;;11.40;91.60;;;;;;5024409;28;20100;-68
2023/02/18 00:26:21;;;;;;;7.47;2.70;;;11.40;91.60;;;;;;5026614;28;20109;-67
2023/02/18 00:28:47;;;;;;;17.42;5.07;;;11.40;91.70;;;;;;5024283;28;20100;-68
2023/02/18 00:31:21;;;;;;;14.15;5.13;;;11.30;91.70;;;;;;5025285;28;20723;-68
2023/02/18 00:33:49;;;;;;;16.50;5.97;;;11.30;91.70;;;;;;5022178;28;20033;-68
2023/02/18 00:36:17;;;;;;;10.38;4.85;;;11.30;91.80;;;;;;5023447;28;20083;-67
2023/02/18 00:38:50;;;;;;;13.63;4.60;;;11.20;91.90;;;;;;5026929;28;20033;-67
2023/02/18 00:41:15;;;;;;;;;;;11.20;91.90;;;;;;5025995;28;20043;-67
2023/02/18 00:43:42;;;;;;;10.02;3.90;;;11.20;91.90;;;;;;5026508;28;19913;-67
2023/02/18 00:46:08;;;;;;;11.80;4.97;;;11.20;92.10;;;;;;5030487;28;20033;-67
2023/02/18 00:48:34;;;;;;;11.90;4.43;;;11.20;92.10;;;;;;5030012;28;20099;-66
2023/02/18 00:51:01;;;;;;;11.13;4.05;;;11.10;92.10;;;;;;5029778;28;20092;-66
2023/02/18 00:53:28;;;;;;;9.80;4.03;;;11.10;92.10;;;;;;5030529;28;20069;-66
2023/02/18 00:55:54;;;;;;;14.95;5.32;;;11.20;92.10;;;;;;5031165;28;20542;-66
2023/02/18 00:58:19;;;;;;;11.98;4.53;;;11.20;92.20;;;;;;5029603;28;20025;-66
2023/02/18 01:00:45;;;;;;;9.50;3.78;;;11.10;92.10;;;;;;5029443;28;20041;-67
2023/02/18 01:03:11;;;;;;;8.93;4.13;;;11.10;92.10;;;;;;5030017;28;20476;-67
2023/02/18 01:05:38;;;;;;;11.88;4.40;;;11.20;92.10;;;;;;5028969;28;20083;-67
2023/02/18 01:08:04;;;;;;;12.63;4.18;;;11.20;92.10;;;;;;5027540;28;20024;-67
2023/02/18 01:10:30;;;;;;;9.77;3.90;;;11.20;92.00;;;;;;5031282;28;20024;-67
2023/02/18 01:12:56;;;;;;;13.65;4.70;;;11.20;92.00;;;;;;5030107;28;20042;-66
2023/02/18 01:15:22;;;;;;;9.15;3.05;;;11.20;92.00;;;;;;5029650;28;20045;-66
2023/02/18 01:17:47;;;;;;;9.30;3.22;;;11.10;92.00;;;;;;5029086;28;20419;-66
2023/02/18 01:20:16;;;;;;;9.55;4.05;;;11.10;92.10;;;;;;5030098;28;20034;-67
2023/02/18 01:22:41;;;;;;;8.20;3.88;;;11.10;92.10;;;;;;5030337;28;20108;-67
2023/02/18 01:25:08;;;;;;;11.65;5.07;;;11.10;92.10;;;;;;5029759;28;20108;-67
2023/02/18 01:27:34;;;;;;;15.23;4.78;;;11.20;92.10;;;;;;5029196;28;20021;-67
2023/02/18 01:29:59;;;;;;;11.27;3.88;;;11.10;92.10;;;;;;5030362;28;20040;-67
2023/02/18 01:32:25;;;;;;;8.05;3.42;;;11.10;92.10;;;;;;5030000;28;20033;-67
2023/02/18 01:34:50;;;;;;;12.38;4.45;;;11.10;92.20;;;;;;5030053;28;20036;-67
2023/02/18 01:37:16;;;;;;;9.45;3.10;;;11.10;92.20;;;;;;5028201;28;20029;-66
2023/02/18 01:39:41;;;;;;;8.63;3.85;;;11.10;92.10;;;;;;5029623;28;20025;-66
2023/02/18 01:42:18;;;;;;;10.02;4.20;;;11.10;92.20;;;;;;5029832;28;20070;-67
2023/02/18 01:44:45;;;;;;;6.78;2.53;;;11.20;92.20;;;;;;5024890;28;20021;-68
2023/02/18 01:47:10;;;;;;;11.80;3.58;;;11.20;92.20;;;;;;5029991;28;20048;-67
2023/02/18 01:49:37;;;;;;;9.73;3.75;;;11.10;92.10;;;;;;5030691;28;21652;-66
2023/02/18 01:52:08;;;;;;;10.40;3.95;;;11.10;92.20;;;;;;5030029;28;20029;-67
2023/02/18 01:54:44;;;;;;;5.97;2.67;;;11.20;92.20;;;;;;5029534;28;20033;-67
2023/02/18 01:57:19;;;;;;;9.80;3.63;;;11.20;92.20;;;;;;5028662;28;20037;-66
2023/02/18 01:59:50;;;;;;;8.93;2.90;;;11.20;92.10;;;;;;5024312;28;20111;-67
2023/02/18 02:02:22;;;;;;;9.27;3.78;;;11.20;92.10;;;;;;5029848;28;20034;-67
2023/02/18 02:04:49;;;;;;;10.73;3.78;;;11.20;92.10;;;;;;5029341;28;20104;-67
2023/02/18 02:07:16;;;;;;;8.35;3.70;;;11.20;92.10;;;;;;5028396;28;20029;-67
2023/02/18 02:09:43;;;;;;;5.00;2.10;;;11.20;92.10;;;;;;5027972;28;20028;-67
2023/02/18 02:12:15;;;;;;;10.82;3.47;;;11.20;92.10;;;;;;5027394;28;20109;-67
2023/02/18 02:15:01;;;;;;;10.40;3.55;;;11.30;92.10;;;;;;5028783;28;20033;-67
2023/02/18 02:17:32;;;;;;;13.48;5.13;;;11.20;92.10;;;;;;5028299;28;20029;-67
2023/02/18 02:20:27;;;;;;;8.75;3.25;;;11.20;92.20;;;;;;5027079;28;20125;-67
2023/02/18 02:23:11;;;;;;;10.40;4.00;;;11.30;92.10;;;;;;5029236;28;20041;-67
2023/02/18 02:26:06;;;;;;;12.10;3.58;;;11.30;92.40;;;;;;5029301;28;20104;-67
2023/02/18 02:29:03;;;;;;;9.93;4.55;;;11.30;92.10;;;;;;5023528;28;20053;-67
2023/02/18 02:31:56;;;;;;;14.90;5.80;;;11.20;92.20;;;;;;5011170;28;20033;-67
2023/02/18 02:34:27;;;;;;;14.43;5.32;;;11.20;92.30;;;;;;5022014;28;20048;-67
2023/02/18 02:37:16;;;;;;;8.88;3.95;;;11.20;92.30;;;;;;5028587;28;20029;-66
2023/02/18 02:40:16;;;;;;;12.43;4.28;;;11.30;92.30;;;;;;5023510;28;20061;-67
2023/02/18 02:42:45;;;;;;;11.18;4.10;;;11.30;92.20;;;;;;5026525;28;20025;-66
2023/02/18 02:45:14;;;;;;;10.50;4.18;;;11.30;92.20;;;;;;5027816;28;20529;-67
2023/02/18 02:47:44;;;;;;;11.30;4.25;;;11.30;92.20;;;;;;5025255;28;20037;-67
2023/02/18 02:50:25;;;;;;;10.38;3.88;;;11.30;92.20;;;;;;5027213;28;20037;-67
2023/02/18 02:52:58;;;;;;;11.82;4.55;;;11.30;92.20;;;;;;5025779;28;20025;-67
2023/02/18 02:55:24;;;;;;;13.77;5.38;;;11.30;92.30;;;;;;5028814;28;20029;-67
2023/02/18 02:57:53;;;;;;;8.55;3.53;;;11.30;92.30;;;;;;5027401;28;20024;-66
2023/02/18 03:00:28;;;;;;;12.70;5.30;;;11.30;92.30;;;;;;5028439;28;20483;-66
2023/02/18 03:03:09;;;;;;;9.95;3.58;;;11.30;92.40;;;;;;5023938;28;20511;-66
2023/02/18 03:05:48;;;;;;;10.25;4.00;;;11.30;92.40;;;;;;5026723;28;20031;-66
2023/02/18 03:08:19;;;;;;;15.70;5.97;;;11.30;92.40;;;;;;5028462;28;20033;-66
2023/02/18 03:11:00;;;;;;;11.53;4.80;;;11.30;92.40;;;;;;5028727;28;20060;-67
2023/02/18 03:13:32;;;;;;;15.32;6.38;;;11.30;92.50;;;;;;5026675;28;20284;-66
2023/02/18 03:16:22;;;;;;;15.38;6.28;;;11.30;92.50;;;;;;5028589;28;20048;-66
2023/02/18 03:19:00;;;;;;;17.27;6.90;;;11.30;92.60;;;;;;5023600;28;20048;-67
2023/02/18 03:21:31;;;;;;;14.65;6.38;;;11.30;92.60;;;;;;5014747;28;20018;-67
2023/02/18 03:24:01;;;;;;;12.82;4.45;;;11.30;92.70;;;;;;5026058;28;20472;-66
2023/02/18 03:26:30;;;;;;;12.27;4.63;;;11.40;92.70;;;;;;5020070;28;20026;-67
2023/02/18 03:29:00;;;;;;;14.45;5.88;;;11.40;92.80;;;;;;5026353;28;20468;-66
2023/02/18 03:31:28;;;;;;;10.60;4.78;;;11.40;92.90;;;;;;5018838;28;20031;-68
2023/02/18 03:34:06;;;;;;;10.55;4.70;;;11.40;92.90;;;;;;5027380;28;20022;-67
2023/02/18 03:36:34;;;;;;;12.30;4.97;;;11.40;92.90;;;;;;5026970;28;20530;-67
2023/02/18 03:39:12;;;;;;;15.13;5.03;;;11.40;92.90;;;;;;5028026;28;20021;-67
2023/02/18 03:41:38;;;;;;;11.25;4.25;;;11.50;92.90;;;;;;5026544;28;20021;-67
2023/02/18 03:44:07;;;;;;;9.85;4.10;;;11.50;92.80;;;;;;5027998;28;20029;-67
2023/02/18 03:46:34;;;;;;;13.05;5.05;;;11.50;92.90;;;;;;5023089;28;20073;-67
2023/02/18 03:49:00;;;;;;;9.07;3.53;;;11.50;92.90;;;;;;5027317;28;20103;-67
2023/02/18 03:51:25;;;;;;;8.68;3.53;;;11.50;92.90;;;;;;5027293;28;20076;-67
2023/02/18 03:53:51;;;;;;;10.05;3.75;;;11.60;92.90;;;;;;5027766;28;20032;-67
2023/02/18 03:56:17;;;;;;;7.75;3.22;;;11.60;92.90;;;;;;5025685;28;20038;-67
2023/02/18 03:58:42;;;;;;;8.00;3.45;;;11.60;92.90;;;;;;5028303;28;20028;-67
2023/02/18 04:01:08;;;;;;;4.97;2.58;;;11.60;92.90;;;;;;5026605;28;20056;-67
2023/02/18 04:03:34;;;;;;;6.90;3.25;;;11.60;92.90;;;;;;5028634;28;20025;-66
2023/02/18 04:05:59;;;;;;;6.30;2.90;;;11.70;92.90;;;;;;5027242;28;20108;-66
2023/02/18 04:08:25;;;;;;;5.60;2.58;;;11.60;92.80;;;;;;5027927;28;20021;-67
2023/02/18 04:10:50;;;;;;;7.05;3.13;;;11.70;92.80;;;;;;5026057;28;20463;-67
2023/02/18 04:13:16;;;;;;;7.82;3.28;;;11.70;92.90;;;;;;5025709;28;20091;-67
2023/02/18 04:15:47;;;;;;;5.80;2.35;;;11.70;92.90;;;;;;5028010;28;20029;-68
2023/02/18 04:18:13;;;;;;;6.32;2.70;;;11.60;93.00;;;;;;5026938;28;20033;-67
2023/02/18 04:20:38;;;;;;;6.88;2.28;;;11.70;93.10;;;;;;5030315;28;20383;-67
2023/02/18 04:23:04;;;;;;;5.65;2.70;;;11.70;93.00;;;;;;5032062;28;20092;-68
2023/02/18 04:25:30;;;;;;;5.85;2.35;;;11.70;92.90;;;;;;5030663;28;20083;-67
2023/02/18 04:27:55;;;;;;;4.28;1.98;;;11.70;92.90;;;;;;5030705;28;20104;-67
2023/02/18 04:30:22;;;;;;;6.97;2.88;;;11.70;92.90;;;;;;5030057;28;20151;-67
2023/02/18 04:32:48;;;;;;;5.63;2.60;;;11.70;93.00;;;;;;5030454;28;20025;-67
2023/02/18 04:35:13;;;;;;;5.20;2.50;;;11.70;93.00;;;;;;5029934;28;20396;-67
2023/02/18 04:37:39;;;;;;;5.68;2.50;;;11.70;93.00;;;;;;5029536;28;20030;-68
2023/02/18 04:40:05;;;;;;;5.75;2.65;;;11.70;93.10;;;;;;5030787;28;20549;-67
2023/02/18 04:42:31;;;;;;;6.60;2.42;;;11.70;93.20;;;;;;5030819;28;20478;-67
2023/02/18 04:44:57;;;;;;;6.22;2.70;;;11.70;93.20;;;;;;5029554;28;20104;-67
2023/02/18 04:47:23;;;;;;;4.72;2.20;;;11.70;93.20;;;;;;5030419;28;20036;-68
2023/02/18 04:49:49;;;;;;;4.32;2.22;;;11.70;93.10;;;;;;5029694;28;20026;-67
2023/02/18 04:52:14;;;;;;;5.75;2.38;;;11.70;93.20;;;;;;5028319;28;20730;-68
2023/02/18 04:54:40;;;;;;;4.78;2.00;;;11.70;93.30;;;;;;5030990;28;20039;-67
2023/02/18 04:57:05;;;;;;;3.58;1.63;;;11.70;93.20;;;;;;5030194;28;20045;-67
2023/02/18 04:59:31;;;;;;;5.93;2.67;;;11.70;93.20;;;;;;5031483;28;20484;-67
2023/02/18 05:01:56;;;;;;;5.47;2.10;;;11.70;93.30;;;;;;5029416;28;20673;-66
2023/02/18 05:04:22;;;;;;;5.03;2.13;;;11.70;93.40;;;;;;5028773;28;20022;-67
2023/02/18 05:06:48;;;;;;;4.40;1.95;;;11.70;93.60;;;;;;5031100;28;20584;-67
2023/02/18 05:09:14;;;;;;;3.00;1.52;;;11.70;93.60;;;;;;5025816;28;20026;-67
2023/02/18 05:11:41;;;;;;;4.95;2.00;;;11.70;93.60;;;;;;5027363;28;20025;-67
2023/02/18 05:14:06;;;;;;;3.33;1.58;;;11.70;93.60;;;;;;5029945;28;20090;-67
2023/02/18 05:16:32;;;;;;;3.47;1.70;;;11.70;93.60;;;;;;5030563;28;20685;-67
2023/02/18 05:18:57;;;;;;;2.47;1.75;;;11.70;93.70;;;;;;5029539;28;20029;-67
2023/02/18 05:21:23;;;;;;;3.35;1.65;;;11.70;93.60;;;;;;5027097;28;20078;-68
2023/02/18 05:23:48;;;;;;;2.05;1.38;;;11.70;93.60;;;;;;5027469;28;20116;-67
2023/02/18 05:26:14;;;;;;;4.00;1.77;;;11.70;93.50;;;;;;5031082;28;20140;-67
2023/02/18 05:28:40;;;;;;;2.55;1.48;;;11.70;93.60;;;;;;5029036;28;20029;-67
2023/02/18 05:31:05;;;;;;;2.17;1.45;;;11.70;93.70;;;;;;5029297;28;20028;-67
2023/02/18 05:33:31;;;;;;;2.72;1.65;;;11.70;93.70;;;;;;5024097;28;20025;-67
2023/02/18 05:35:56;;;;;;;2.67;1.25;;;11.70;93.70;;;;;;5030681;28;20052;-68
2023/02/18 05:38:22;;;;;;;3.83;2.10;;;11.70;93.60;;;;;;5020596;28;20555;-67
2023/02/18 05:40:48;;;;;;;2.60;1.30;;;11.70;93.70;;;;;;5027527;28;20392;-68
2023/02/18 05:43:14;;;;;;;1.73;1.30;;;11.70;93.60;;;;;;5028564;28;20052;-67
2023/02/18 05:45:39;;;;;;;2.22;1.30;;;11.70;93.60;;;;;;5030141;28;20022;-67
2023/02/18 05:48:05;;;;;;;2.20;1.40;;;11.70;93.70;;;;;;5028481;28;20476;-67
2023/02/18 05:50:31;;;;;;;2.55;1.60;;;11.60;93.70;;;;;;5029023;28;20029;-67
2023/02/18 05:52:57;;;;;;;2.10;1.20;;;11.70;93.70;;;;;;5023597;28;20041;-67
2023/02/18 05:55:23;;;;;;;1.95;1.05;;;11.60;93.80;;;;;;5030119;28;20794;-67
2023/02/18 05:57:49;;;;;;;1.60;1.00;;;11.60;93.80;;;;;;5029895;28;20033;-68
2023/02/18 06:00:14;;;;;;;1.70;1.15;;;11.60;93.80;;;;;;5027247;28;20119;-68
2023/02/18 06:02:40;;;;;;;2.30;1.20;;;11.60;93.80;;;;;;5029712;28;20040;-67
2023/02/18 06:05:06;;;;;;;2.20;1.30;;;11.50;93.90;;;;;;5023780;28;20017;-68
2023/02/18 06:07:32;;;;;;;2.03;1.35;;;11.50;94.00;;;;;;5027293;28;20036;-67
2023/02/18 06:09:57;;;;;;;2.42;1.70;;;11.60;94.00;;;;;;5024332;28;20025;-68
2023/02/18 06:12:23;;;;;;;1.67;1.23;;;11.50;94.00;;;;;;5028029;28;20036;-67
2023/02/18 06:14:48;;;;;;;2.72;1.60;;;11.60;94.00;;;;;;5040267;28;20029;-67
2023/02/18 06:17:15;;;;;;;2.63;1.33;;;11.60;93.90;;;;;;5027664;28;20029;-67
2023/02/18 06:19:40;;;;;;;1.90;1.27;;;11.60;93.90;;;;;;5026941;28;20033;-66
2023/02/18 06:22:06;;;;;;;2.17;1.50;;;11.60;93.90;;;;;;5028397;28;20034;-66
2023/02/18 06:24:32;;;;;;;1.73;1.40;;;11.50;93.80;;;;;;5029583;28;20082;-67
2023/02/18 06:26:58;;;;;;;2.85;1.70;;;11.50;93.90;;;;;;5024707;28;20017;-67
2023/02/18 06:29:24;;;;;;;2.97;1.92;;;11.50;94.00;;;;;;5028280;28;20471;-65
2023/02/18 06:31:50;;;;;;;3.15;1.83;;;11.50;94.00;;;;;;5028029;28;20029;-66
2023/02/18 06:34:15;;;;;;;3.78;2.00;;;11.50;94.00;;;;;;5025002;28;20037;-66
2023/02/18 06:36:43;;;;;;;2.53;1.90;;;11.50;94.00;;;;;;5026420;28;20026;-66
2023/02/18 06:39:09;;;;;;;3.30;1.98;;;11.50;94.00;;;;;;5026194;28;20034;-67
2023/02/18 06:41:35;;;;;;;3.20;1.60;;;11.50;94.00;;;;;;5024576;28;20033;-67
2023/02/18 06:44:00;;;;;;;5.22;2.00;;;11.50;94.10;;;;;;5027830;28;20515;-67
2023/02/18 06:46:29;;;;;;;3.00;1.70;;;11.50;94.00;;;;;;5027639;28;20033;-66
2023/02/18 06:48:54;;;;;;;4.43;2.15;;;11.50;94.10;;;;;;5025003;28;20536;-66
2023/02/18 06:51:20;;;;;;;5.20;2.40;;;11.40;94.10;;;;;;5028886;28;20039;-65
2023/02/18 06:53:45;;;;;;;3.60;1.90;;;11.40;94.10;;;;;;5027570;28;20029;-66
2023/02/18 06:56:11;;;;;;;4.00;2.10;;;11.40;94.10;;;;;;5027606;28;20048;-67
2023/02/18 06:58:37;;;;;;;4.18;2.05;;;11.40;94.10;;;;;;5025627;28;20626;-66
2023/02/18 07:01:03;;;;;;;4.55;2.10;;;11.40;94.10;;;;;;5029672;28;20026;-67
2023/02/18 07:03:29;;;;;;;3.63;2.08;;;11.40;94.10;;;;;;5027684;28;20041;-66
2023/02/18 07:05:55;;;;;;;3.92;1.98;;;11.40;94.10;;;;;;5028903;28;20531;-67
2023/02/18 07:08:20;;;;;;;3.75;1.90;;;11.40;94.10;;;;;;5026574;28;20107;-66
2023/02/18 07:10:46;;;;;;;2.47;1.60;;;11.40;94.10;;;;;;5025525;28;20048;-67
2023/02/18 07:13:12;;;;;;;2.67;1.77;;;11.40;94.10;;;;;;5028116;28;20053;-66
2023/02/18 07:15:38;;;;;;;4.00;1.85;;;11.40;94.10;;;;;;5024449;28;20048;-67
2023/02/18 07:18:03;;;;;;;3.25;2.08;;;11.40;94.10;;;;;;5027899;28;20033;-68
2023/02/18 07:20:29;;;;;;;3.50;2.10;;;11.40;94.10;;;;;;5028846;28;20018;-66
2023/02/18 07:22:56;;;;;;;4.22;1.98;;;11.30;94.10;;;;;;5026913;28;20080;-67
2023/02/18 07:25:21;;;;;;;4.80;2.30;;;11.30;94.10;;;;;;5026852;28;20045;-67
2023/02/18 07:27:47;;;;;;;3.03;1.65;;;11.30;94.10;;;;;;5026817;28;20036;-66
2023/02/18 07:30:13;;;;;;;4.20;2.20;;;11.30;94.10;;;;;;5028240;28;20022;-66
2023/02/18 07:32:39;;;;;;;6.63;1.83;;;11.30;94.10;;;;;;5029861;28;20049;-66
2023/02/18 07:35:06;;;;;;;4.13;2.35;;;11.30;94.20;;;;;;5022181;28;20061;-66
2023/02/18 07:37:31;;;;;;;4.13;2.00;;;11.30;94.10;;;;;;5025664;28;20021;-69
2023/02/18 07:39:57;;;;;;;3.83;2.15;;;11.30;94.10;;;;;;5027161;28;20033;-67
2023/02/18 07:42:23;;;;;;;3.50;2.05;;;11.30;94.00;;;;;;5026256;28;20031;-66
2023/02/18 07:44:49;;;;;;;2.88;1.75;;;11.30;94.00;;;;;;5027481;28;20032;-67
2023/02/18 07:47:17;;;;;;;4.45;2.20;;;11.30;94.00;;;;;;5022262;28;20063;-67
2023/02/18 07:49:43;;;;;;;4.40;1.98;;;11.30;94.00;;;;;;5022002;28;20104;-68
2023/02/18 07:52:09;;;;;;;3.47;1.90;;;11.30;94.00;;;;;;5027801;28;20113;-67
2023/02/18 07:54:34;;;;;;;2.53;1.63;;;11.30;94.00;;;;;;5029964;28;20085;-67
2023/02/18 07:57:00;;;;;;;3.05;1.85;;;11.30;94.00;;;;;;5032154;28;20025;-67
2023/02/18 07:59:25;;;;;;;8.90;2.20;;;11.30;94.00;;;;;;5031023;28;20134;-67
2023/02/18 08:01:51;;;;;;;3.90;2.08;;;11.30;93.90;;;;;;5031548;28;20025;-67
2023/02/18 08:04:16;;;;;;;3.85;2.25;;;11.30;93.90;;;;;;5030871;28;20030;-68
2023/02/18 08:06:45;;;;;;;3.78;2.50;;;11.20;93.90;;;;;;5032345;28;20018;-68
2023/02/18 08:09:12;;;;;;;2.78;1.80;;;11.20;94.00;;;;;;5029825;28;20046;-67
2023/02/18 08:11:38;;;;;;;10.25;2.58;;;11.20;94.10;;;;;;5031370;28;20492;-68
2023/02/18 08:14:04;;;;;;;4.22;1.75;;;11.20;94.10;;;;;;5032135;28;20100;-66
2023/02/18 08:16:30;;;;;;;4.18;1.85;;;11.10;94.00;;;;;;5029846;28;20028;-67
2023/02/18 08:18:56;;;;;;;4.10;1.80;;;11.20;94.00;;;;;;5030733;28;20049;-67
2023/02/18 08:21:24;;;;;;;7.80;2.05;;;11.20;94.00;;;;;;5030913;28;20030;-67
2023/02/18 08:23:50;;;;;;;3.35;1.45;;;11.20;93.90;;;;;;5031608;28;20025;-67
2023/02/18 08:26:16;;;;;;;6.35;1.70;;;11.20;93.90;;;;;;5031038;28;20456;-67
2023/02/18 08:28:44;;;;;;;5.88;1.85;;;11.20;93.90;;;;;;5031590;28;20022;-67
2023/02/18 08:31:24;;;;;;;4.25;1.80;;;11.10;93.80;;;;;;5030922;28;20033;-68
2023/02/18 08:33:50;;;;;;;2.00;1.25;;;11.10;93.80;;;;;;5032095;28;20021;-68
2023/02/18 08:36:15;;;;;;;6.45;1.50;;;11.10;93.80;;;;;;5030009;28;20037;-67
2023/02/18 08:38:41;;;;;;;3.28;1.20;;;11.10;93.70;;;;;;5027380;28;20021;-67
2023/02/18 08:41:08;;;;;;;4.60;1.40;;;11.10;93.70;;;;;;5027944;28;20048;-67
2023/02/18 08:43:35;;;;;;;6.97;1.50;;;11.10;93.70;;;;;;5028891;28;20017;-67
2023/02/18 08:46:00;;;;;;;2.95;1.20;;;11.10;93.60;;;;;;5029689;28;20018;-67
2023/02/18 08:48:26;;;;;;;4.38;1.40;;;11.10;93.60;;;;;;5029578;28;20037;-66
2023/02/18 08:50:52;;;;;;;3.83;1.30;;;11.10;93.50;;;;;;5027537;28;20024;-66
2023/02/18 08:53:18;;;;;;;6.22;1.33;;;11.10;93.50;;;;;;5030825;28;20025;-67
2023/02/18 08:55:43;;;;;;;3.70;1.70;;;11.10;93.60;;;;;;5030677;28;20024;-67
2023/02/18 08:58:09;;;;;;;5.45;1.58;;;11.10;93.50;;;;;;5025589;28;20361;-67
2023/02/18 09:00:36;;;;;;;4.68;1.30;;;11.10;93.40;;;;;;5031551;28;20116;-67
2023/02/18 09:03:02;;;;;;;5.55;1.40;;;11.00;93.30;;;;;;5030289;28;20064;-68
2023/02/18 09:05:28;;;;;;;6.97;1.58;;;11.00;93.30;;;;;;5030778;28;20372;-68
2023/02/18 09:07:53;;;;;;;4.30;1.15;;;11.00;93.20;;;;;;5028659;28;20062;-65
2023/02/18 09:10:19;;;;;;;5.85;1.38;;;11.00;93.20;;;;;;5030834;28;20605;-68
2023/02/18 09:12:45;;;;;;;11.27;1.90;;;10.90;93.20;;;;;;5031215;28;20026;-66
2023/02/18 09:15:10;;;;;;;5.75;1.42;;;10.90;93.20;;;;;;5030274;28;20025;-66
2023/02/18 09:17:36;;;;;;;3.50;1.48;;;10.90;93.30;;;;;;5028587;28;20396;-65
2023/02/18 09:20:03;;;;;;;4.93;1.15;;;10.90;93.30;;;;;;5029328;28;20395;-67
2023/02/18 09:22:28;;;;;;;3.83;1.20;;;10.90;93.20;;;;;;5028133;28;20432;-65
2023/02/18 09:24:54;;;;;;;2.28;1.10;;;10.80;93.30;;;;;;5029313;28;20155;-65
2023/02/18 09:27:21;;;;;;;7.65;1.35;;;10.80;93.30;;;;;;5027908;28;20029;-66
2023/02/18 09:29:47;;;;;;;4.80;1.40;;;10.80;93.30;;;;;;5029699;28;20036;-66
2023/02/18 09:32:12;;;;;;;3.72;1.10;;;10.70;93.30;;;;;;5028923;28;20033;-66
2023/02/18 09:34:38;;;;;;;4.57;1.40;;;10.70;93.40;;;;;;5030107;28;20021;-66
2023/02/18 09:37:03;;;;;;;2.05;1.05;;;10.60;93.40;;;;;;5029264;28;20510;-67
2023/02/18 09:39:29;;;;;;;2.72;1.00;;;10.70;93.50;;;;;;5029460;28;20033;-66
2023/02/18 09:41:58;;;;;;;1.92;0.98;;;10.60;93.50;;;;;;5030179;28;20175;-66
2023/02/18 09:44:51;;;;;;;4.13;1.25;;;10.70;93.50;;;;;;5029938;28;20028;-66
2023/02/18 09:47:28;;;;;;;4.30;1.35;;;10.70;93.40;;;;;;5030561;28;20018;-67
2023/02/18 09:49:59;;;;;;;3.72;1.10;;;10.70;93.40;;;;;;5029909;28;20450;-66
2023/02/18 09:52:33;;;;;;;4.32;1.50;;;10.80;93.30;;;;;;5030410;28;20095;-66
2023/02/18 09:54:59;;;;;;;4.20;1.65;;;10.80;93.30;;;;;;5029733;28;20034;-66
2023/02/18 09:57:44;;;;;;;1.92;1.00;;;10.80;93.20;;;;;;5030045;28;20025;-66
2023/02/18 10:00:13;;;;;;;2.22;1.20;;;10.80;93.20;;;;;;5029719;28;20104;-66
2023/02/18 10:02:40;;;;;;;2.90;1.63;;;10.80;93.20;;;;;;5027535;28;20036;-66
2023/02/18 10:05:11;;;;;;;4.53;1.30;;;10.90;93.20;;;;;;5028091;28;20100;-66
2023/02/18 10:07:39;;;;;;;3.72;1.00;;;10.80;93.10;;;;;;5027620;28;20061;-67
2023/02/18 10:10:44;;;;;;;4.22;1.20;;;10.90;93.20;;;;;;5029262;28;20041;-66
2023/02/18 10:13:16;;;;;;;3.17;1.00;;;10.90;93.10;;;;;;5026912;28;20036;-66
2023/02/18 10:15:42;;;;;;;3.13;1.27;;;10.90;93.10;;;;;;5029268;28;20025;-66
2023/02/18 10:18:25;;;;;;;2.40;0.80;;;10.80;93.10;;;;;;5029053;28;20049;-66
2023/02/18 10:21:23;;;;;;;4.47;1.00;;;10.90;93.10;;;;;;5029047;28;20586;-66
2023/02/18 10:24:16;;;;;;;1.48;0.90;;;10.90;93.10;;;;;;5024443;28;20119;-66
2023/02/18 10:26:42;;;;;;;3.85;1.58;;;10.90;93.00;;;;;;5029252;28;20033;-66
2023/02/18 10:29:16;;;;;;;2.92;1.20;;;10.90;93.00;;;;;;5027964;28;20101;-66
2023/02/18 10:31:56;;;;;;;6.47;1.63;;;10.90;93.00;;;;;;5029598;28;20025;-66
2023/02/18 10:34:40;;;;;;;2.25;0.90;;;10.80;93.10;;;;;;5028431;28;20515;-66
2023/02/18 10:37:24;;;;;;;7.70;1.35;;;10.80;93.10;;;;;;5029440;28;20029;-66
2023/02/18 10:40:06;;;;;;;3.67;1.10;;;10.80;93.10;;;;;;5028777;28;20029;-67
2023/02/18 10:43:08;;;;;;;6.83;1.30;;;10.80;93.20;;;;;;5025710;28;20033;-66
2023/02/18 10:45:54;;;;;;;4.43;1.30;;;10.90;93.20;;;;;;5028121;28;20272;-66
2023/02/18 10:48:47;;;;;;;4.45;1.45;;;10.90;93.10;;;;;;5029055;28;20029;-67
2023/02/18 10:51:20;;;;;;;4.75;1.85;;;10.90;93.10;;;;;;5027531;28;20088;-67
2023/02/18 10:53:49;;;;;;;3.33;1.00;;;10.90;93.10;;;;;;5029144;28;20492;-67
2023/02/18 10:56:34;;;;;;;3.80;1.40;;;10.90;93.10;;;;;;5029228;28;20075;-66
2023/02/18 10:59:18;;;;;;;4.53;1.55;;;10.90;93.20;;;;;;5026454;28;20033;-67
2023/02/18 11:01:44;;;;;;;3.13;1.30;;;10.90;93.20;;;;;;5027968;28;20041;-66
2023/02/18 11:04:17;;;;;;;7.28;1.70;;;10.90;93.20;;;;;;5028447;28;20102;-67
2023/02/18 11:06:46;;;;;;;6.28;1.55;;;10.90;93.20;;;;;;5028706;28;20040;-66
2023/02/18 11:09:30;;;;;;;3.42;1.35;;;10.90;93.20;;;;;;5028277;28;20477;-66
2023/02/18 11:12:13;;;;;;;3.00;1.20;;;11.00;93.20;;;;;;5023135;28;20700;-67
2023/02/18 11:14:43;;;;;;;4.60;1.33;;;10.90;93.20;;;;;;5024719;28;20106;-67
2023/02/18 11:17:17;;;;;;;2.05;1.23;;;11.00;93.20;;;;;;5029242;28;20029;-67
2023/02/18 11:19:50;;;;;;;3.58;1.52;;;11.00;93.20;;;;;;5028157;28;20037;-67
2023/02/18 11:22:21;;;;;;;3.08;1.30;;;11.00;93.20;;;;;;5028034;28;20188;-67
2023/02/18 11:24:49;;;;;;;1.80;1.13;;;11.10;93.10;;;;;;5027188;28;20029;-67
2023/02/18 11:27:38;;;;;;;2.95;1.65;;;11.10;93.10;;;;;;5025031;28;20026;-67
2023/02/18 11:30:27;;;;;;;2.97;1.20;;;11.20;93.10;;;;;;5026871;28;20420;-67
2023/02/18 11:32:56;;;;;;;7.53;1.95;;;11.20;93.30;;;;;;5022576;28;20030;-66
2023/02/18 11:35:25;;;;;;;9.07;1.65;;;11.20;93.20;;;;;;5025633;28;20032;-66
2023/02/18 11:37:52;;;;;;;4.63;1.45;;;11.30;92.90;;;;;;5027394;28;20488;-67
2023/02/18 11:40:33;;;;;;;5.82;1.70;;;11.30;92.90;;;;;;5027358;28;20465;-67
2023/02/18 11:43:10;;;;;;;3.17;1.55;;;11.40;92.80;;;;;;5025955;28;20030;-67
2023/02/18 11:45:36;;;;;;;5.70;1.13;;;11.40;92.70;;;;;;5026879;28;20506;-67
2023/02/18 11:48:22;;;;;;;2.85;1.25;;;11.50;92.80;;;;;;5025665;28;20045;-67
2023/02/18 11:50:52;;;;;;;6.40;1.60;;;11.50;92.60;;;;;;5026282;28;20542;-66
2023/02/18 11:53:34;;;;;;;3.55;1.25;;;11.50;92.50;;;;;;5028075;28;20069;-66
2023/02/18 11:56:20;;;;;;;5.93;1.45;;;11.50;92.50;;;;;;5024404;28;20029;-66
2023/02/18 11:58:47;;;;;;;6.63;2.00;;;11.50;92.50;;;;;;5027323;28;20571;-67
2023/02/18 12:01:27;;;;;;;3.90;1.58;;;11.50;92.40;;;;;;5026036;28;20033;-67
2023/02/18 12:03:59;;;;;;;5.32;1.30;;;11.60;92.50;;;;;;5027010;28;20017;-66
2023/02/18 12:06:33;;;;;;;4.82;1.27;;;11.60;92.40;;;;;;5027509;28;20498;-66
2023/02/18 12:09:21;;;;;;;6.55;1.80;;;11.60;92.50;;;;;;5025915;28;20020;-67
2023/02/18 12:11:59;;;;;;;2.65;1.27;;;11.60;92.50;;;;;;5024678;28;20383;-66
2023/02/18 12:14:25;;;;;;;3.05;1.38;;;11.60;92.50;;;;;;5027359;28;20044;-67
2023/02/18 12:16:53;;;;;;;3.38;1.55;;;11.70;92.50;;;;;;5027025;28;20487;-66
2023/02/18 12:19:19;;;;;;;1.83;1.38;;;11.70;92.40;;;;;;5026692;28;20042;-66
2023/02/18 12:22:09;;;;;;;3.85;1.58;;;11.80;92.40;;;;;;5026386;28;20037;-66
2023/02/18 12:25:12;;;;;;;4.93;1.20;;;11.80;92.40;;;;;;5027349;28;20626;-67
2023/02/18 12:27:47;;;;;;;4.85;1.70;;;11.80;92.30;;;;;;5027542;28;20026;-66
2023/02/18 12:30:39;;;;;;;5.13;1.80;;;11.70;92.40;;;;;;5027905;28;20033;-67
2023/02/18 12:33:18;;;;;;;4.07;1.88;;;11.70;92.50;;;;;;5027714;28;20714;-66
2023/02/18 12:36:08;;;;;;;5.93;2.03;;;11.60;92.60;;;;;;5027736;28;20029;-67
2023/02/18 12:38:54;;;;;;;6.30;2.38;;;11.60;92.70;;;;;;5027884;28;20022;-67
2023/02/18 12:41:44;;;;;;;5.93;2.20;;;11.60;92.70;;;;;;5027281;28;20503;-67
2023/02/18 12:44:36;;;;;;;5.72;2.33;;;11.60;92.70;;;;;;5029224;28;20029;-67
2023/02/18 12:47:04;;;;;;;;;;;11.60;92.70;;;;;;5029587;28;20041;-67
2023/02/18 12:49:48;;;;;;;7.00;3.60;;;11.70;92.70;;;;;;5030848;28;19916;-67
2023/02/18 12:52:51;;;;;;;4.95;2.58;;;11.60;92.70;;;;;;5030743;28;20029;-67
2023/02/18 12:55:44;;;;;;;4.40;2.60;;;11.70;92.70;;;;;;5030533;28;20029;-66
2023/02/18 12:58:33;;;;;;;11.55;3.78;;;11.70;92.60;;;;;;5018181;28;20045;-66
2023/02/18 13:01:13;;;;;;;6.68;3.00;;;11.70;92.60;;;;;;5024461;28;20468;-67
2023/02/18 13:04:16;;;;;;;7.35;2.97;;;11.70;92.60;;;;;;5032750;28;20025;-67